Time;durP1;ratioP1;P1;durP2;ratioP2;P2;SDS_P1;SDS_P2;PMS_P1;PMS_P2;Temp;Humidity;BMP_temperature;BMP_pressure;BME280_temperature;BME280_humidity;BME280_pressure;Samples;Min_cycle;Max_cycle;Signal;HPM_P1;HPM_P2
2023/07/02 03:01:24;;;;;;;70.07;66.33;;;15.70;99.90;;;;;;5375890;23;20235;-75
2023/07/02 03:03:49;;;;;;;48.07;45.43;;;15.70;99.90;;;;;;4883456;29;20200;-76
2023/07/02 03:06:15;;;;;;;33.80;31.57;;;15.70;99.90;;;;;;4882911;29;20212;-75
2023/07/02 03:08:41;;;;;;;47.53;44.83;;;15.70;99.90;;;;;;4864420;29;20348;-76
2023/07/02 03:11:07;;;;;;;44.97;42.23;;;15.80;99.90;;;;;;4879537;29;20215;-76
2023/07/02 03:13:33;;;;;;;49.73;46.90;;;15.80;99.90;;;;;;4894325;23;20217;-82
2023/07/02 03:15:59;;;;;;;45.27;42.63;;;15.80;99.90;;;;;;4891812;29;20216;-82
2023/07/02 03:18:24;;;;;;;41.47;39.07;;;15.80;99.90;;;;;;4889058;29;20192;-84
2023/07/02 03:20:50;;;;;;;44.90;42.27;;;15.80;99.90;;;;;;4871932;29;20271;-83
2023/07/02 03:23:16;;;;;;;43.90;41.50;;;15.90;99.90;;;;;;4886861;29;20272;-85
2023/07/02 03:25:42;;;;;;;53.13;50.10;;;15.80;99.90;;;;;;4868172;29;20216;-84
2023/07/02 03:28:07;;;;;;;65.53;61.73;;;15.80;99.90;;;;;;4869434;29;20220;-84
2023/07/02 03:30:33;;;;;;;73.10;68.73;;;15.80;99.90;;;;;;4868080;29;20208;-84
2023/07/02 03:32:59;;;;;;;55.30;51.27;;;15.80;99.90;;;;;;4868208;29;20212;-84
2023/07/02 03:35:25;;;;;;;65.80;62.10;;;15.90;99.90;;;;;;4866808;29;20185;-84
2023/07/02 03:37:50;;;;;;;98.47;92.67;;;15.90;99.90;;;;;;4861499;29;20264;-83
2023/07/02 03:40:16;;;;;;;100.43;94.57;;;15.90;99.90;;;;;;4865116;29;20848;-82
2023/07/02 03:42:43;;;;;;;103.57;97.57;;;15.90;99.90;;;;;;4882050;29;20684;-82
2023/07/02 03:45:09;;;;;;;91.43;86.43;;;15.90;99.90;;;;;;4866226;29;20281;-82
2023/07/02 03:47:35;;;;;;;98.10;92.07;;;15.90;99.90;;;;;;4886484;29;20216;-82
2023/07/02 03:50:01;;;;;;;86.13;81.30;;;16.00;99.90;;;;;;4881186;29;20235;-82
2023/07/02 03:52:27;;;;;;;47.07;44.03;;;15.90;99.90;;;;;;4876306;29;20228;-81
2023/07/02 03:54:53;;;;;;;49.20;46.30;;;16.00;99.90;;;;;;4883021;29;20212;-83
2023/07/02 03:57:18;;;;;;;72.37;68.53;;;15.90;99.90;;;;;;4881176;29;20669;-82
2023/07/02 03:59:44;;;;;;;14.90;13.80;;;15.80;99.90;;;;;;4865462;29;20585;-81
2023/07/02 04:02:10;;;;;;;18.73;17.13;;;15.70;99.90;;;;;;4879498;29;20279;-81
2023/07/02 04:04:37;;;;;;;20.47;18.90;;;15.60;99.90;;;;;;4865379;29;20212;-81
2023/07/02 04:07:02;;;;;;;31.13;28.93;;;15.50;99.90;;;;;;4881035;29;20220;-83
2023/07/02 04:09:28;;;;;;;53.60;50.27;;;15.50;99.90;;;;;;4882105;29;20211;-81
2023/07/02 04:11:54;;;;;;;43.50;40.73;;;15.50;99.90;;;;;;4873572;29;20188;-80
2023/07/02 04:14:20;;;;;;;34.93;32.63;;;15.40;99.90;;;;;;4865811;29;20250;-83
2023/07/02 04:16:46;;;;;;;37.87;35.53;;;15.40;99.90;;;;;;4868417;29;20188;-80
2023/07/02 04:19:11;;;;;;;74.13;69.93;;;15.30;99.90;;;;;;4867096;29;20211;-81
2023/07/02 04:21:37;;;;;;;74.33;69.97;;;15.30;99.90;;;;;;4858261;29;20244;-82
2023/07/02 04:24:03;;;;;;;94.53;89.53;;;15.30;99.90;;;;;;4881118;29;20279;-81
2023/07/02 04:26:29;;;;;;;91.80;86.70;;;15.20;99.90;;;;;;4890987;29;20225;-81
2023/07/02 04:28:55;;;;;;;96.20;90.70;;;15.20;99.90;;;;;;4876605;29;20592;-81
2023/07/02 04:31:21;;;;;;;84.27;79.43;;;15.20;99.90;;;;;;4861077;29;20215;-80
2023/07/02 04:33:47;;;;;;;99.10;93.37;;;15.20;99.90;;;;;;4895805;29;20230;-80
2023/07/02 04:36:12;;;;;;;91.83;86.37;;;15.20;99.90;;;;;;4875528;29;20396;-80
2023/07/02 04:38:39;;;;;;;71.13;66.43;;;15.20;99.90;;;;;;4868364;29;20693;-82
2023/07/02 04:41:05;;;;;;;55.50;51.77;;;15.20;99.90;;;;;;4880123;29;20196;-81
2023/07/02 04:43:32;;;;;;;27.93;25.40;;;15.20;99.90;;;;;;4873783;29;20304;-81
2023/07/02 04:45:59;;;;;;;21.87;19.63;;;15.10;99.90;;;;;;4865747;29;20215;-82
2023/07/02 04:48:25;;;;;;;28.83;26.33;;;15.10;99.90;;;;;;4881300;29;20212;-82
2023/07/02 04:50:51;;;;;;;41.33;38.53;;;15.10;99.90;;;;;;4860342;29;20675;-81
2023/07/02 04:53:16;;;;;;;33.80;31.27;;;15.10;99.90;;;;;;4874105;29;20217;-84
2023/07/02 04:55:43;;;;;;;23.70;21.80;;;15.20;99.90;;;;;;4865625;29;20198;-81
2023/07/02 04:58:09;;;;;;;26.33;24.30;;;15.20;99.90;;;;;;4881467;29;20295;-80
2023/07/02 05:00:35;;;;;;;45.50;42.53;;;15.20;99.90;;;;;;4875437;29;20239;-81
2023/07/02 05:03:00;;;;;;;43.90;41.00;;;15.20;99.90;;;;;;4861684;29;20223;-81
2023/07/02 05:05:26;;;;;;;46.33;43.00;;;15.30;99.90;;;;;;4862350;29;20197;-79
2023/07/02 05:07:53;;;;;;;46.57;43.50;;;15.30;99.90;;;;;;4855272;29;20217;-80
2023/07/02 05:10:19;;;;;;;63.40;59.53;;;15.40;99.90;;;;;;4877413;29;20192;-80
2023/07/02 05:12:44;;;;;;;113.80;107.10;;;15.50;99.90;;;;;;4876305;29;20778;-82
2023/07/02 05:15:12;;;;;;;135.43;126.60;;;15.70;99.90;;;;;;4870877;29;20208;-82
2023/07/02 05:17:37;;;;;;;128.97;121.43;;;15.90;99.90;;;;;;4888015;29;20193;-83
2023/07/02 05:20:07;;;;;;;33.30;30.87;;;16.10;99.90;;;;;;4886197;29;20191;-80
2023/07/02 05:22:32;;;;;;;22.53;20.83;;;16.20;99.90;;;;;;4870859;29;20192;-79
2023/07/02 05:24:58;;;;;;;39.77;36.83;;;16.20;99.90;;;;;;4879404;29;20343;-81
2023/07/02 05:27:24;;;;;;;205.67;194.53;;;16.40;99.90;;;;;;4881293;29;20720;-79
2023/07/02 05:29:50;;;;;;;18.90;17.57;;;16.40;99.90;;;;;;4890936;29;20199;-82
2023/07/02 05:32:16;;;;;;;43.83;40.93;;;16.50;99.90;;;;;;4865241;29;20203;-82
2023/07/02 05:34:41;;;;;;;124.67;117.30;;;16.60;99.90;;;;;;4865376;29;20208;-82
2023/07/02 05:37:07;;;;;;;144.27;136.27;;;16.70;99.90;;;;;;4865102;29;20538;-85
2023/07/02 05:39:36;;;;;;;29.47;26.87;;;16.80;99.90;;;;;;4880062;29;20239;-85
2023/07/02 05:42:01;;;;;;;53.00;49.27;;;16.90;99.90;;;;;;4864028;29;20185;-83
2023/07/02 05:44:27;;;;;;;52.40;49.00;;;17.10;99.90;;;;;;4900971;29;20227;-83
2023/07/02 05:46:53;;;;;;;44.03;41.33;;;17.40;99.90;;;;;;4882339;29;20220;-83
2023/07/02 05:49:19;;;;;;;38.23;35.07;;;17.50;99.90;;;;;;4869519;29;20189;-82
2023/07/02 05:51:44;;;;;;;38.53;35.97;;;17.50;99.90;;;;;;4867380;29;20230;-84
2023/07/02 05:54:10;;;;;;;27.17;25.20;;;17.50;99.90;;;;;;4881591;29;20216;-82
2023/07/02 05:56:36;;;;;;;30.07;28.03;;;17.60;99.90;;;;;;4880868;29;20567;-83
2023/07/02 05:59:02;;;;;;;26.30;24.60;;;17.60;99.90;;;;;;4856075;29;20704;-83
2023/07/02 06:01:27;;;;;;;39.37;36.73;;;17.70;99.90;;;;;;4872913;29;20558;-82
2023/07/02 06:03:54;;;;;;;25.40;23.73;;;17.80;99.90;;;;;;4864414;29;20216;-83
2023/07/02 06:06:25;;;;;;;41.47;38.90;;;18.30;99.90;;;;;;4879227;29;20252;-83
2023/07/02 06:08:51;;;;;;;65.50;61.20;;;18.70;99.90;;;;;;4858503;29;20219;-70
2023/07/02 06:11:17;;;;;;;65.47;62.07;;;18.90;99.90;;;;;;4879181;29;20613;-70
2023/07/02 06:13:43;;;;;;;54.72;51.70;;;19.40;99.90;;;;;;4880258;29;20223;-70
2023/07/02 06:16:09;;;;;;;32.97;31.07;;;20.00;99.90;;;;;;4880536;29;20565;-70
2023/07/02 06:18:35;;;;;;;36.33;33.97;;;20.30;99.90;;;;;;4879892;29;20260;-70
2023/07/02 06:21:00;;;;;;;36.10;33.67;;;20.80;99.90;;;;;;4876579;29;20199;-70
2023/07/02 06:23:26;;;;;;;14.07;13.05;;;21.30;99.90;;;;;;4880657;29;20306;-70
2023/07/02 06:25:58;;;;;;;16.33;15.20;;;21.60;99.90;;;;;;4880364;29;20288;-70
2023/07/02 06:28:25;;;;;;;17.60;15.85;;;22.10;99.90;;;;;;4879926;29;20689;-69
2023/07/02 06:30:51;;;;;;;11.35;10.52;;;22.70;99.90;;;;;;4876381;29;20610;-68
2023/07/02 06:33:17;;;;;;;24.90;23.33;;;23.20;99.90;;;;;;4879060;29;20311;-69
2023/07/02 06:35:42;;;;;;;17.40;16.20;;;23.10;99.90;;;;;;4879884;29;20193;-69
2023/07/02 06:38:08;;;;;;;31.83;29.95;;;22.50;99.90;;;;;;4879991;29;20225;-69
2023/07/02 06:40:34;;;;;;;27.75;25.77;;;22.00;99.90;;;;;;4878672;29;20253;-70
2023/07/02 06:43:00;;;;;;;20.58;19.17;;;22.00;99.90;;;;;;4880276;29;20264;-69
2023/07/02 06:45:25;;;;;;;15.85;14.68;;;22.10;99.90;;;;;;4880451;29;20192;-69
2023/07/02 06:47:51;;;;;;;17.15;15.77;;;22.20;99.90;;;;;;4880060;29;20314;-70
2023/07/02 06:50:17;;;;;;;16.60;15.20;;;21.90;99.90;;;;;;4878457;29;20227;-70
2023/07/02 06:52:43;;;;;;;20.42;19.05;;;22.00;99.90;;;;;;4880157;29;20307;-69
2023/07/02 06:55:09;;;;;;;10.52;9.43;;;22.30;99.90;;;;;;4879986;29;20630;-68
2023/07/02 06:57:34;;;;;;;11.07;9.60;;;22.50;99.90;;;;;;4879594;29;20249;-68
2023/07/02 07:00:00;;;;;;;13.93;11.80;;;22.20;99.90;;;;;;4878834;29;20675;-71
2023/07/02 07:02:27;;;;;;;16.52;14.90;;;22.20;99.90;;;;;;4877648;29;20208;-70
2023/07/02 07:04:53;;;;;;;16.38;12.98;;;22.10;99.90;;;;;;4875184;29;20212;-69
2023/07/02 07:07:19;;;;;;;23.40;21.10;;;21.80;99.90;;;;;;4879070;29;20224;-70
2023/07/02 07:09:45;;;;;;;13.48;11.70;;;21.40;99.90;;;;;;4857992;29;20279;-71
2023/07/02 07:12:11;;;;;;;14.45;12.93;;;20.90;99.90;;;;;;4879758;29;20801;-70
2023/07/02 07:14:36;;;;;;;15.85;13.48;;;20.70;99.90;;;;;;4879309;29;20232;-70
2023/07/02 07:17:02;;;;;;;18.95;17.05;;;20.50;99.90;;;;;;4879379;29;20211;-70
2023/07/02 07:19:28;;;;;;;52.60;49.15;;;20.30;99.90;;;;;;4873746;29;20188;-70
2023/07/02 07:21:54;;;;;;;39.05;36.25;;;20.10;99.90;;;;;;4857982;29;20725;-71
2023/07/02 07:24:20;;;;;;;16.58;12.35;;;19.80;99.90;;;;;;4866537;29;20253;-70
2023/07/02 07:26:45;;;;;;;14.80;13.30;;;19.50;99.90;;;;;;4879258;29;20559;-68
2023/07/02 07:29:11;;;;;;;19.73;12.97;;;19.50;99.90;;;;;;4865683;29;20193;-69
2023/07/02 07:31:37;;;;;;;18.02;13.70;;;19.60;99.90;;;;;;4879582;29;20192;-68
2023/07/02 07:34:03;;;;;;;17.67;12.93;;;19.80;99.90;;;;;;4862605;29;20208;-71
2023/07/02 07:36:29;;;;;;;18.38;14.07;;;19.80;99.90;;;;;;4879276;29;20199;-71
2023/07/02 07:38:54;;;;;;;20.45;11.93;;;19.80;99.90;;;;;;4873829;29;20278;-69
2023/07/02 07:41:20;;;;;;;16.08;13.68;;;19.90;99.90;;;;;;4879274;29;20192;-69
2023/07/02 07:43:46;;;;;;;39.17;36.25;;;20.00;99.90;;;;;;4879200;29;20227;-70
2023/07/02 07:46:12;;;;;;;78.10;73.28;;;20.10;99.90;;;;;;4878723;29;20227;-71
2023/07/02 07:48:38;;;;;;;73.03;68.15;;;20.20;99.90;;;;;;4875505;29;20292;-69
2023/07/02 07:51:03;;;;;;;93.07;87.80;;;20.00;99.90;;;;;;4878690;29;20249;-69
2023/07/02 07:53:29;;;;;;;76.40;71.72;;;20.10;99.90;;;;;;4875094;29;20213;-69
2023/07/02 07:55:55;;;;;;;67.38;63.33;;;20.30;99.90;;;;;;4873714;29;20661;-69
2023/07/02 07:58:21;;;;;;;45.73;42.70;;;20.20;99.90;;;;;;4875351;29;20219;-69
2023/07/02 08:00:47;;;;;;;89.78;84.35;;;20.00;99.90;;;;;;4875626;29;20204;-69
2023/07/02 08:03:12;;;;;;;106.75;100.93;;;19.90;99.90;;;;;;4879017;29;20269;-69
2023/07/02 08:05:38;;;;;;;78.90;74.25;;;20.00;99.90;;;;;;4878521;29;20257;-69
2023/07/02 08:08:04;;;;;;;57.50;53.60;;;20.20;99.90;;;;;;4875307;29;20212;-68
2023/07/02 08:10:30;;;;;;;95.28;89.68;;;20.10;99.90;;;;;;4875892;29;20222;-69
2023/07/02 08:12:55;;;;;;;82.03;76.95;;;20.10;99.90;;;;;;4877946;29;20269;-69
2023/07/02 08:15:22;;;;;;;44.58;41.30;;;20.20;99.90;;;;;;4877487;29;20230;-69
2023/07/02 08:17:47;;;;;;;36.43;33.20;;;20.10;99.90;;;;;;4875561;29;20192;-69
2023/07/02 08:20:13;;;;;;;43.85;40.42;;;20.30;99.90;;;;;;4878405;29;20622;-69
2023/07/02 08:22:39;;;;;;;22.88;18.60;;;21.10;99.90;;;;;;4879523;29;20199;-68
2023/07/02 08:25:06;;;;;;;18.02;15.15;;;21.40;99.90;;;;;;4879320;29;20223;-69
2023/07/02 08:27:32;;;;;;;20.75;17.50;;;21.20;99.90;;;;;;4863188;29;20204;-69
2023/07/02 08:29:58;;;;;;;24.83;19.80;;;20.90;99.90;;;;;;4874853;29;20207;-69
2023/07/02 08:32:24;;;;;;;25.83;23.38;;;20.90;99.90;;;;;;4877735;29;20548;-69
2023/07/02 08:34:50;;;;;;;28.23;25.27;;;21.00;99.90;;;;;;4877789;29;20692;-69
2023/07/02 08:37:17;;;;;;;35.78;32.22;;;21.00;99.90;;;;;;4859676;29;20196;-70
2023/07/02 08:39:43;;;;;;;72.40;67.53;;;21.50;99.90;;;;;;4861275;29;20280;-71
2023/07/02 08:42:08;;;;;;;25.65;22.95;;;22.30;99.90;;;;;;4877735;29;20215;-70
2023/07/02 08:44:35;;;;;;;25.45;23.00;;;22.90;99.90;;;;;;4878000;29;20705;-69
2023/07/02 08:47:01;;;;;;;21.08;18.48;;;23.50;99.90;;;;;;4859642;29;20540;-70
2023/07/02 08:49:27;;;;;;;16.85;12.25;;;23.60;99.90;;;;;;4876719;29;20192;-70
2023/07/02 08:51:53;;;;;;;18.75;13.05;;;23.00;99.90;;;;;;4861502;29;20604;-70
2023/07/02 08:54:19;;;;;;;21.27;18.33;;;22.60;99.90;;;;;;4876651;29;20204;-70
2023/07/02 08:56:46;;;;;;;15.73;13.50;;;23.00;99.90;;;;;;4876591;29;20724;-69
2023/07/02 08:59:13;;;;;;;20.50;16.60;;;23.90;99.90;;;;;;4859626;29;20219;-70
2023/07/02 09:01:49;;;;;;;19.40;15.25;;;23.90;99.90;;;;;;4878254;29;20594;-70
2023/07/02 09:04:17;;;;;;;18.77;15.75;;;24.00;99.90;;;;;;4877616;29;20222;-70
2023/07/02 09:06:43;;;;;;;21.42;17.15;;;23.20;99.90;;;;;;4876609;29;20189;-70
2023/07/02 09:09:09;;;;;;;26.85;18.52;;;22.90;99.90;;;;;;4860637;29;20637;-69
2023/07/02 09:11:35;;;;;;;20.45;16.70;;;23.10;99.90;;;;;;4877246;29;20188;-69
2023/07/02 09:14:01;;;;;;;20.08;16.70;;;23.40;99.90;;;;;;4879666;24;20701;-73
2023/07/02 09:16:29;;;;;;;23.27;20.80;;;24.30;99.90;;;;;;4860169;29;20188;-73
2023/07/02 09:19:03;;;;;;;41.47;37.88;;;24.90;99.90;;;;;;4876288;29;20192;-74
2023/07/02 09:21:47;;;;;;;39.33;36.30;;;25.40;99.90;;;;;;4877128;29;20195;-73
2023/07/02 09:24:13;;;;;;;30.63;28.13;;;25.40;99.90;;;;;;4860689;29;20212;-73
2023/07/02 09:26:45;;;;;;;39.83;36.42;;;24.80;99.80;;;;;;4855425;29;20212;-72
2023/07/02 09:29:12;;;;;;;53.25;49.55;;;24.50;99.90;;;;;;4859390;29;20193;-72
2023/07/02 09:31:46;;;;;;;55.38;51.40;;;23.90;99.90;;;;;;4878015;29;20192;-73
2023/07/02 09:34:12;;;;;;;57.65;53.90;;;23.70;99.90;;;;;;4877013;29;20212;-73
2023/07/02 09:36:41;;;;;;;39.35;36.38;;;24.00;99.90;;;;;;4855967;29;20189;-73
2023/07/02 09:39:13;;;;;;;41.80;38.55;;;24.30;99.30;;;;;;4874351;29;20192;-73
2023/07/02 09:41:42;;;;;;;40.58;37.28;;;24.40;99.90;;;;;;4860558;29;20200;-73
2023/07/02 09:44:09;;;;;;;28.48;26.13;;;24.70;98.90;;;;;;4860942;29;20212;-72
2023/07/02 09:46:41;;;;;;;24.98;19.05;;;25.00;98.80;;;;;;4890313;29;20250;-73
2023/07/02 09:49:08;;;;;;;15.90;14.27;;;25.90;98.50;;;;;;4874379;29;20222;-73
2023/07/02 09:51:34;;;;;;;16.38;11.77;;;25.50;95.50;;;;;;4877357;29;20200;-74
2023/07/02 09:54:00;;;;;;;16.55;11.02;;;24.60;96.30;;;;;;4876839;29;20216;-72
2023/07/02 09:56:25;;;;;;;16.30;14.05;;;25.00;96.70;;;;;;4856027;29;20193;-73
2023/07/02 09:58:51;;;;;;;20.42;16.35;;;25.30;95.40;;;;;;4870198;29;20790;-72
2023/07/02 10:01:17;;;;;;;19.58;12.65;;;25.00;95.80;;;;;;4876213;29;20193;-74
2023/07/02 10:03:43;;;;;;;16.75;12.55;;;24.90;96.50;;;;;;4876334;29;20220;-75
2023/07/02 10:06:09;;;;;;;20.58;16.58;;;25.20;96.10;;;;;;4875811;29;20196;-76
2023/07/02 10:08:35;;;;;;;22.80;20.58;;;25.40;95.50;;;;;;4873078;29;20356;-76
2023/07/02 10:11:12;;;;;;;38.15;35.13;;;25.50;94.00;;;;;;4875414;29;20270;-76
2023/07/02 10:13:39;;;;;;;37.45;34.65;;;25.40;93.70;;;;;;4861574;29;20251;-76
2023/07/02 10:16:06;;;;;;;53.67;49.75;;;25.30;93.20;;;;;;4861655;29;20274;-77
2023/07/02 10:18:32;;;;;;;55.00;50.97;;;25.80;92.30;;;;;;4868190;29;20284;-78
2023/07/02 10:20:58;;;;;;;57.70;53.45;;;26.40;92.80;;;;;;4862289;29;20189;-76
2023/07/02 10:23:37;;;;;;;49.72;45.97;;;26.20;91.90;;;;;;4857038;29;20212;-75
2023/07/02 10:26:17;;;;;;;55.63;51.75;;;26.00;92.70;;;;;;4866807;29;20192;-74
2023/07/02 10:28:56;;;;;;;41.28;38.25;;;26.30;92.20;;;;;;4870814;29;20220;-75
2023/07/02 10:31:22;;;;;;;39.88;36.53;;;25.90;92.00;;;;;;4860308;29;20199;-75
2023/07/02 10:33:48;;;;;;;39.83;36.60;;;25.60;92.00;;;;;;4860292;29;20212;-75
2023/07/02 10:36:24;;;;;;;49.33;45.60;;;25.50;91.90;;;;;;4876772;29;20295;-75
2023/07/02 10:38:51;;;;;;;60.42;56.00;;;25.90;91.70;;;;;;4855174;29;20290;-75
2023/07/02 10:41:30;;;;;;;35.65;32.70;;;26.70;91.30;;;;;;4860198;29;20196;-74
2023/07/02 10:44:06;;;;;;;19.85;17.75;;;27.20;88.90;;;;;;4852616;29;20227;-75
2023/07/02 10:46:32;;;;;;;18.30;13.98;;;27.80;89.80;;;;;;4858675;29;20199;-74
2023/07/02 10:48:57;;;;;;;17.48;15.77;;;28.40;86.80;;;;;;4856269;29;20593;-75
2023/07/02 10:51:24;;;;;;;18.55;14.93;;;28.40;83.50;;;;;;4876820;29;20215;-75
2023/07/02 10:54:04;;;;;;;20.90;18.90;;;28.30;84.30;;;;;;4876905;29;20211;-74
2023/07/02 10:56:31;;;;;;;18.17;16.35;;;27.70;83.00;;;;;;4877535;29;20267;-74
2023/07/02 10:58:57;;;;;;;18.75;15.65;;;27.20;86.30;;;;;;4871126;29;20185;-75
2023/07/02 11:01:30;;;;;;;25.45;23.05;;;26.60;88.80;;;;;;4879804;29;20541;-75
2023/07/02 11:03:58;;;;;;;53.00;49.15;;;26.10;90.00;;;;;;4879145;29;20216;-76
2023/07/02 11:06:24;;;;;;;50.83;47.30;;;25.70;90.00;;;;;;4878824;29;20665;-75
2023/07/02 11:08:50;;;;;;;36.65;33.63;;;26.40;88.60;;;;;;4874856;29;20604;-75
2023/07/02 11:11:16;;;;;;;18.25;16.55;;;26.70;88.30;;;;;;4880071;29;20199;-75
2023/07/02 11:13:49;;;;;;;20.45;17.33;;;27.10;86.20;;;;;;4880308;29;20292;-75
2023/07/02 11:16:24;;;;;;;25.17;22.83;;;26.40;87.00;;;;;;4880493;29;20307;-75
2023/07/02 11:18:51;;;;;;;22.73;20.27;;;26.50;87.00;;;;;;4875017;29;20195;-75
2023/07/02 11:21:16;;;;;;;17.45;14.32;;;27.20;84.70;;;;;;4896618;29;20231;-75
2023/07/02 11:23:42;;;;;;;18.52;16.42;;;27.70;85.20;;;;;;4880824;29;20727;-74
2023/07/02 11:26:08;;;;;;;21.58;14.82;;;27.40;81.80;;;;;;4855087;29;20276;-74
2023/07/02 11:28:34;;;;;;;16.88;14.82;;;27.00;84.40;;;;;;4874859;29;20685;-75
2023/07/02 11:31:03;;;;;;;19.90;17.85;;;27.80;85.70;;;;;;4879194;29;20649;-75
2023/07/02 11:33:35;;;;;;;19.95;14.27;;;29.20;81.60;;;;;;4866109;29;20281;-75
2023/07/02 11:36:00;;;;;;;15.30;11.30;;;30.30;77.60;;;;;;4868333;29;20659;-76
2023/07/02 11:38:26;;;;;;;15.45;12.63;;;31.20;73.30;;;;;;4874245;29;20231;-76
2023/07/02 11:40:52;;;;;;;18.02;13.68;;;31.00;71.90;;;;;;4862164;29;20204;-77
2023/07/02 11:43:18;;;;;;;18.38;14.20;;;29.90;73.90;;;;;;4878446;29;20624;-75
2023/07/02 11:45:44;;;;;;;16.67;11.40;;;29.10;76.20;;;;;;4877803;29;20244;-75
2023/07/02 11:48:09;;;;;;;14.82;12.57;;;28.90;74.90;;;;;;4873343;29;20242;-73
2023/07/02 11:50:35;;;;;;;17.30;12.50;;;29.20;74.90;;;;;;4878417;29;20196;-73
2023/07/02 11:53:01;;;;;;;17.25;13.02;;;29.40;74.40;;;;;;4878138;29;20276;-73
2023/07/02 11:55:26;;;;;;;17.73;14.13;;;29.80;73.10;;;;;;4878807;29;20279;-73
2023/07/02 11:57:52;;;;;;;17.02;13.55;;;30.00;72.70;;;;;;4874565;29;20192;-73
2023/07/02 12:00:18;;;;;;;16.20;13.05;;;29.90;71.00;;;;;;4863335;29;20193;-73
2023/07/02 12:02:44;;;;;;;15.60;12.20;;;29.00;72.20;;;;;;4877291;29;20199;-73
2023/07/02 12:05:10;;;;;;;14.85;11.88;;;28.20;74.20;;;;;;4878160;29;20220;-73
2023/07/02 12:07:36;;;;;;;17.13;11.77;;;28.70;72.60;;;;;;4873561;29;20208;-73
2023/07/02 12:10:01;;;;;;;13.27;10.82;;;28.40;72.10;;;;;;4878245;29;20558;-73
2023/07/02 12:12:27;;;;;;;19.40;12.68;;;28.50;70.60;;;;;;4878021;29;20269;-73
2023/07/02 12:14:53;;;;;;;15.18;11.27;;;27.80;72.40;;;;;;4878853;29;20228;-76
2023/07/02 12:17:18;;;;;;;18.20;15.00;;;27.20;74.00;;;;;;4876157;29;20729;-77
2023/07/02 12:19:44;;;;;;;19.10;16.30;;;27.20;76.00;;;;;;4880393;29;20196;-77
2023/07/02 12:22:10;;;;;;;20.02;17.92;;;27.10;74.70;;;;;;4862896;29;20192;-77
2023/07/02 12:24:36;;;;;;;20.67;11.68;;;27.40;76.20;;;;;;4878231;29;20689;-77
2023/07/02 12:27:02;;;;;;;20.20;11.75;;;28.60;70.80;;;;;;4874960;29;20185;-77
2023/07/02 12:29:28;;;;;;;15.25;11.35;;;28.80;70.80;;;;;;4862226;29;20208;-78
2023/07/02 12:31:54;;;;;;;17.63;12.10;;;29.50;70.00;;;;;;4881804;29;20181;-77
2023/07/02 12:34:19;;;;;;;14.98;12.15;;;30.60;69.60;;;;;;4881948;29;20792;-77
2023/07/02 12:36:45;;;;;;;13.50;12.10;;;31.40;66.00;;;;;;4881591;29;20200;-77
2023/07/02 12:39:11;;;;;;;17.05;12.20;;;31.70;64.70;;;;;;4879839;29;20605;-78
2023/07/02 12:41:37;;;;;;;25.05;19.88;;;32.50;64.20;;;;;;4865392;29;20181;-77
2023/07/02 12:44:02;;;;;;;27.45;24.50;;;32.10;60.60;;;;;;4864752;29;20223;-78
2023/07/02 12:46:28;;;;;;;19.48;15.43;;;30.40;61.70;;;;;;4871587;29;20180;-77
2023/07/02 12:48:54;;;;;;;20.80;15.65;;;29.40;64.80;;;;;;4863354;29;20224;-77
2023/07/02 12:51:19;;;;;;;19.20;15.38;;;28.70;66.80;;;;;;4880305;29;20279;-77
2023/07/02 12:53:45;;;;;;;23.08;15.57;;;29.00;67.80;;;;;;4873742;29;20216;-77
2023/07/02 12:56:11;;;;;;;18.60;13.82;;;29.70;66.20;;;;;;4888290;29;20207;-77
2023/07/02 12:58:37;;;;;;;18.90;15.00;;;29.60;64.90;;;;;;4881203;29;20192;-77
2023/07/02 13:01:03;;;;;;;18.85;13.57;;;28.70;65.90;;;;;;4869903;29;20192;-78
2023/07/02 13:03:30;;;;;;;18.48;12.57;;;28.80;67.50;;;;;;4882403;29;20705;-77
2023/07/02 13:05:56;;;;;;;16.88;12.50;;;29.70;64.50;;;;;;4877664;29;20685;-79
2023/07/02 13:08:22;;;;;;;21.75;15.40;;;30.60;63.90;;;;;;4878555;29;20308;-77
2023/07/02 13:10:47;;;;;;;17.92;13.10;;;31.10;61.20;;;;;;4879787;29;20199;-77
2023/07/02 13:13:13;;;;;;;17.80;13.00;;;31.80;60.50;;;;;;4879035;29;20567;-77
2023/07/02 13:15:39;;;;;;;17.88;12.00;;;31.30;59.00;;;;;;4875747;29;20188;-77
2023/07/02 13:18:05;;;;;;;17.70;15.60;;;31.80;58.60;;;;;;4878938;29;20552;-77
2023/07/02 13:20:30;;;;;;;19.23;14.00;;;32.10;57.30;;;;;;4880032;29;20196;-77
2023/07/02 13:22:58;;;;;;;16.27;14.05;;;32.60;57.10;;;;;;4862679;29;20203;-77
2023/07/02 13:25:24;;;;;;;15.77;14.02;;;32.40;55.90;;;;;;4877391;29;20207;-77
2023/07/02 13:27:49;;;;;;;21.60;16.35;;;31.40;57.00;;;;;;4878401;29;20242;-77
2023/07/02 13:30:15;;;;;;;19.45;17.38;;;31.50;57.00;;;;;;4877669;29;20587;-77
2023/07/02 13:32:41;;;;;;;24.50;18.30;;;31.80;57.60;;;;;;4877753;29;20192;-77
2023/07/02 13:35:06;;;;;;;24.17;21.15;;;32.10;55.70;;;;;;4876211;29;20208;-77
2023/07/02 13:37:32;;;;;;;20.35;18.23;;;31.50;54.80;;;;;;4858601;29;20193;-77
2023/07/02 13:39:58;;;;;;;21.65;16.15;;;30.70;56.70;;;;;;4873846;29;20196;-76
2023/07/02 13:42:24;;;;;;;21.60;16.83;;;31.00;57.70;;;;;;4877436;29;20200;-76
2023/07/02 13:44:49;;;;;;;20.52;15.30;;;31.80;56.40;;;;;;4877419;29;20563;-77
2023/07/02 13:47:15;;;;;;;26.98;16.17;;;31.50;54.00;;;;;;4852740;29;20829;-76
2023/07/02 13:49:41;;;;;;;19.25;16.08;;;31.40;54.50;;;;;;4877486;29;20188;-76
2023/07/02 13:52:07;;;;;;;20.48;14.02;;;31.00;55.30;;;;;;4877577;29;20204;-77
2023/07/02 13:54:33;;;;;;;18.02;14.13;;;31.20;56.30;;;;;;4876125;29;20208;-76
2023/07/02 13:56:58;;;;;;;20.17;15.85;;;32.30;56.10;;;;;;4869267;29;20726;-77
2023/07/02 13:59:24;;;;;;;18.20;15.02;;;33.40;53.60;;;;;;4877622;29;20299;-77
2023/07/02 14:01:50;;;;;;;19.58;14.50;;;33.90;52.10;;;;;;4863042;29;20200;-77
2023/07/02 14:04:17;;;;;;;17.63;14.70;;;33.90;51.30;;;;;;4866629;29;20291;-77
2023/07/02 14:06:44;;;;;;;20.25;15.70;;;32.70;51.20;;;;;;4869769;29;20603;-77
2023/07/02 14:09:10;;;;;;;20.52;17.23;;;32.00;52.80;;;;;;4876910;29;20701;-77
2023/07/02 14:11:38;;;;;;;21.10;18.90;;;31.90;53.60;;;;;;4877259;29;20320;-76
2023/07/02 14:14:04;;;;;;;16.42;13.85;;;31.30;53.10;;;;;;4877326;29;20251;-77
2023/07/02 14:16:30;;;;;;;16.40;13.60;;;30.80;53.60;;;;;;4866123;29;20245;-77
2023/07/02 14:18:56;;;;;;;20.80;14.57;;;31.20;55.60;;;;;;4859003;29;20656;-77
2023/07/02 14:21:22;;;;;;;20.83;15.82;;;32.00;54.50;;;;;;4859833;29;20219;-77
2023/07/02 14:23:48;;;;;;;18.08;14.90;;;32.90;52.70;;;;;;4860526;29;20224;-77
2023/07/02 14:26:13;;;;;;;20.15;13.77;;;32.10;50.90;;;;;;4853349;29;20815;-76
2023/07/02 14:28:39;;;;;;;19.48;14.57;;;32.50;50.70;;;;;;4868076;29;20215;-76
2023/07/02 14:31:07;;;;;;;16.23;13.02;;;33.60;50.30;;;;;;4881536;29;20613;-77
2023/07/02 14:33:35;;;;;;;15.52;12.32;;;34.10;50.50;;;;;;4881957;29;20208;-77
2023/07/02 14:36:01;;;;;;;18.02;14.85;;;34.30;50.10;;;;;;4858227;29;20193;-77
2023/07/02 14:38:27;;;;;;;16.30;14.27;;;34.40;48.10;;;;;;4877956;29;20533;-77
2023/07/02 14:40:55;;;;;;;15.45;13.52;;;33.50;48.60;;;;;;4866498;29;20188;-77
2023/07/02 14:43:23;;;;;;;19.17;13.73;;;33.70;48.90;;;;;;4881329;29;20693;-77
2023/07/02 14:45:51;;;;;;;17.88;15.70;;;33.00;49.50;;;;;;4880569;29;20196;-77
2023/07/02 14:48:17;;;;;;;20.08;18.00;;;32.50;50.10;;;;;;4879654;29;20216;-77
2023/07/02 14:50:45;;;;;;;19.80;17.95;;;32.10;50.50;;;;;;4888406;29;20579;-77
2023/07/02 14:53:11;;;;;;;21.17;18.10;;;32.30;50.70;;;;;;4866175;29;20200;-77
2023/07/02 14:55:37;;;;;;;21.77;19.02;;;31.40;51.20;;;;;;4860544;29;20264;-77
2023/07/02 14:58:02;;;;;;;21.08;18.60;;;31.10;52.30;;;;;;4860391;29;20336;-77
2023/07/02 15:00:28;;;;;;;22.85;20.55;;;31.40;52.50;;;;;;4880085;29;20208;-77
2023/07/02 15:02:54;;;;;;;22.05;20.02;;;31.50;51.30;;;;;;4865351;29;20192;-77
2023/07/02 15:05:19;;;;;;;23.42;21.13;;;31.70;50.20;;;;;;4880161;29;20223;-78
2023/07/02 15:07:45;;;;;;;20.38;16.52;;;32.30;51.20;;;;;;4875048;29;20314;-76
2023/07/02 15:10:11;;;;;;;21.13;17.83;;;32.50;49.10;;;;;;4880330;29;20575;-77
2023/07/02 15:12:37;;;;;;;20.08;17.95;;;32.00;49.30;;;;;;4883010;29;20199;-77
2023/07/02 15:15:06;;;;;;;25.98;23.88;;;32.00;49.60;;;;;;4883111;24;20243;-86
2023/07/02 15:17:32;;;;;;;18.65;16.75;;;32.30;50.60;;;;;;4870869;29;20280;-85
2023/07/02 15:20:01;;;;;;;18.38;16.52;;;32.70;50.00;;;;;;4861593;29;20224;-85
2023/07/02 15:22:27;;;;;;;18.30;15.57;;;32.80;49.60;;;;;;4854820;29;20196;-85